Аэропорт: Бухта Провидения. Провидения

ICAO: UHMD

METAR:
2018/11/19 05:30
UHMD 190530Z 36002MPS P1000 OVC056 M01/M04 Q1002 RMK QFE751/1001
METAR:
Информация по данной станции не доступна